createdAt,value
2022-11-27T00:04:25.196Z,0.1
2022-11-27T00:09:25.041Z,0.1
2022-11-27T00:14:25.301Z,0
2022-11-27T00:19:25.083Z,-0.1
2022-11-27T00:24:25.516Z,-0.2
2022-11-27T00:29:25.060Z,-0.2
2022-11-27T00:34:25.268Z,-0.3
2022-11-27T00:39:25.054Z,-0.3
2022-11-27T00:44:25.272Z,-0.3
2022-11-27T00:49:25.120Z,-0.3
2022-11-27T00:54:25.193Z,-0.3
2022-11-27T00:59:25.038Z,-0.3
2022-11-27T01:04:25.380Z,-0.3
2022-11-27T01:09:25.115Z,-0.3
2022-11-27T01:14:25.305Z,-0.3
2022-11-27T01:19:25.710Z,-0.4
2022-11-27T01:24:25.927Z,-0.4
2022-11-27T01:29:25.078Z,-0.3
2022-11-27T01:34:25.328Z,-0.3
2022-11-27T01:39:25.163Z,-0.4
2022-11-27T01:44:25.423Z,-0.4
2022-11-27T01:49:25.032Z,-0.4
2022-11-27T01:54:25.214Z,-0.4
2022-11-27T01:59:25.150Z,-0.5
2022-11-27T02:04:25.330Z,-0.4
2022-11-27T02:09:25.073Z,-0.4
2022-11-27T02:14:25.279Z,-0.4
2022-11-27T02:19:25.084Z,-0.4
2022-11-27T02:24:25.463Z,-0.4
2022-11-27T02:29:25.116Z,-0.4
2022-11-27T02:34:25.359Z,-0.5
2022-11-27T02:39:25.053Z,-0.6
2022-11-27T02:44:25.242Z,-0.5
2022-11-27T02:49:25.059Z,-0.5
2022-11-27T02:59:25.463Z,-0.7
2022-11-27T03:04:25.107Z,-0.7
2022-11-27T03:09:25.105Z,-0.7
2022-11-27T03:14:25.380Z,-0.6
2022-11-27T03:19:25.064Z,-0.7
2022-11-27T03:24:25.345Z,-0.8
2022-11-27T03:29:25.135Z,-0.9
2022-11-27T03:34:25.334Z,-1
2022-11-27T03:39:25.071Z,-1
2022-11-27T03:44:25.344Z,-1
2022-11-27T03:49:25.079Z,-1.1
2022-11-27T03:54:25.328Z,-0.9
2022-11-27T03:59:25.115Z,-0.9
2022-11-27T04:04:25.352Z,-0.9
2022-11-27T04:09:25.050Z,-0.8
2022-11-27T04:14:25.073Z,-0.8
2022-11-27T04:19:25.339Z,-0.8
2022-11-27T04:24:25.076Z,-0.8
2022-11-27T04:29:25.352Z,-0.8
2022-11-27T04:34:25.054Z,-0.8
2022-11-27T04:39:25.351Z,-0.6
2022-11-27T04:44:25.074Z,-0.5
2022-11-27T04:49:25.298Z,-0.6
2022-11-27T04:54:25.088Z,-0.6
2022-11-27T04:59:25.115Z,-0.7
2022-11-27T05:04:25.260Z,-0.8
2022-11-27T05:09:25.112Z,-0.6
2022-11-27T05:14:25.290Z,-0.6
2022-11-27T05:19:25.046Z,-0.6
2022-11-27T05:24:25.347Z,-0.6
2022-11-27T05:29:25.088Z,-0.6
2022-11-27T05:34:25.304Z,-0.5
2022-11-27T05:39:25.121Z,-0.6
2022-11-27T05:44:25.304Z,-0.6
2022-11-27T05:49:25.120Z,-0.5
2022-11-27T05:54:25.286Z,-0.7
2022-11-27T05:59:25.087Z,-0.6
2022-11-27T06:04:25.332Z,-0.6
2022-11-27T06:09:25.179Z,-0.5
2022-11-27T06:14:25.331Z,-0.4
2022-11-27T06:19:25.133Z,-0.3
2022-11-27T06:24:25.461Z,-0.2
2022-11-27T06:29:25.061Z,-0.1
2022-11-27T06:34:25.266Z,-0.1
2022-11-27T06:39:25.044Z,0
2022-11-27T06:44:25.276Z,0.1
2022-11-27T06:49:25.132Z,0.1
2022-11-27T06:54:25.146Z,0.1
2022-11-27T06:59:25.393Z,0.1
2022-11-27T07:04:25.139Z,0.1
2022-11-27T07:09:25.281Z,0.3
2022-11-27T07:14:25.135Z,0.3
2022-11-27T07:19:25.529Z,0.4
2022-11-27T07:24:25.336Z,0.4
2022-11-27T07:29:25.124Z,0.6
2022-11-27T07:34:25.453Z,0.8
2022-11-27T07:39:39.659Z,0.8
2022-11-27T07:44:25.196Z,0.9
2022-11-27T07:49:25.493Z,1
2022-11-27T07:54:25.109Z,1
2022-11-27T07:59:25.319Z,1.1
2022-11-27T08:04:25.281Z,1.1
2022-11-27T08:09:25.104Z,1.2
2022-11-27T08:14:25.109Z,1.3
2022-11-27T08:19:25.407Z,1.3
2022-11-27T08:24:25.204Z,1.5
2022-11-27T08:29:27.756Z,1.3
2022-11-27T08:34:25.083Z,1.4
2022-11-27T08:39:25.089Z,1.4
2022-11-27T08:44:25.079Z,1.6
2022-11-27T08:49:25.316Z,1.8
2022-11-27T08:54:25.101Z,1.8
2022-11-27T08:59:25.478Z,1.8
2022-11-27T09:04:25.266Z,2
2022-11-27T09:09:25.131Z,2.1
2022-11-27T09:14:25.124Z,2.1
2022-11-27T09:19:25.129Z,2.1
2022-11-27T09:24:25.400Z,2.2
2022-11-27T09:29:25.090Z,2.3
2022-11-27T09:34:25.368Z,2.3
2022-11-27T09:39:25.130Z,2.4
2022-11-27T09:44:25.150Z,2.5
2022-11-27T09:49:25.238Z,2.6
2022-11-27T09:54:25.158Z,2.8
2022-11-27T09:59:25.174Z,2.8
2022-11-27T10:04:25.157Z,2.9
2022-11-27T10:09:25.133Z,3.1
2022-11-27T10:14:25.993Z,2.9
2022-11-27T10:19:25.075Z,2.8
2022-11-27T10:24:25.396Z,2.7
2022-11-27T10:29:25.246Z,2.8
2022-11-27T10:34:25.141Z,2.9
2022-11-27T10:39:25.155Z,3.1
2022-11-27T10:44:25.106Z,3.4
2022-11-27T10:49:25.136Z,3.5
2022-11-27T10:54:25.155Z,3.4
2022-11-27T10:59:27.672Z,3.5
2022-11-27T11:04:37.331Z,3.2
2022-11-27T11:09:25.217Z,3.3
2022-11-27T11:14:25.223Z,3.4
2022-11-27T11:19:25.558Z,3.3
2022-11-27T11:24:25.372Z,3.4
2022-11-27T11:29:25.121Z,3.5
2022-11-27T11:34:25.128Z,3.6
2022-11-27T11:39:25.088Z,3.8
2022-11-27T11:44:25.103Z,3.8
2022-11-27T11:49:25.090Z,3.8
2022-11-27T11:54:25.217Z,3.8
2022-11-27T11:59:25.220Z,3.8
2022-11-27T12:04:25.172Z,3.8
2022-11-27T12:09:25.354Z,3.6
2022-11-27T12:14:25.192Z,3.8
2022-11-27T12:19:25.145Z,3.9
2022-11-27T12:24:25.265Z,4.1
2022-11-27T12:29:25.143Z,4
2022-11-27T12:34:25.133Z,3.9
2022-11-27T12:39:25.305Z,3.9
2022-11-27T12:44:25.214Z,4.1
2022-11-27T12:49:25.119Z,4.2
2022-11-27T12:54:25.223Z,4.2
2022-11-27T12:59:25.118Z,4.3
2022-11-27T13:04:25.156Z,4.1
2022-11-27T13:09:25.244Z,4.3
2022-11-27T13:14:25.125Z,4.2
2022-11-27T13:19:25.122Z,4.2
2022-11-27T13:24:25.131Z,4.3
2022-11-27T13:29:25.146Z,4.2
2022-11-27T13:34:25.191Z,4.3
2022-11-27T13:39:25.094Z,4.4
2022-11-27T13:44:25.135Z,4.3
2022-11-27T13:49:25.143Z,4.2
2022-11-27T13:54:28.816Z,4.2
2022-11-27T13:59:25.139Z,4.2
2022-11-27T14:04:25.101Z,4.3
2022-11-27T14:09:25.163Z,4.3
2022-11-27T14:14:25.166Z,4.1
2022-11-27T14:19:28.180Z,4.2
2022-11-27T14:24:25.141Z,4.1
2022-11-27T14:29:25.133Z,4.1
2022-11-27T14:34:25.146Z,4.1
2022-11-27T14:39:25.176Z,3.9
2022-11-27T14:44:25.318Z,3.9
2022-11-27T14:49:25.562Z,3.9
2022-11-27T14:54:25.162Z,3.9
2022-11-27T14:59:25.215Z,3.8
2022-11-27T15:04:25.100Z,3.6
2022-11-27T15:09:31.574Z,3.7
2022-11-27T15:14:25.135Z,3.6
2022-11-27T15:19:25.873Z,3.6
2022-11-27T15:24:25.310Z,3.6
2022-11-27T15:29:25.334Z,3.5
2022-11-27T15:34:25.157Z,3.4
2022-11-27T15:39:25.141Z,3.4
2022-11-27T15:44:25.168Z,3.4
2022-11-27T15:49:25.579Z,3.4
2022-11-27T15:54:25.185Z,3.2
2022-11-27T15:59:25.439Z,3.2
2022-11-27T16:04:25.200Z,3.1
2022-11-27T16:09:25.165Z,3.2
2022-11-27T16:14:25.256Z,3.2
2022-11-27T16:19:25.184Z,3.1
2022-11-27T16:24:25.369Z,3.1
2022-11-27T16:29:25.143Z,3.1
2022-11-27T16:34:25.467Z,3
2022-11-27T16:39:25.217Z,2.9
2022-11-27T16:44:25.127Z,2.9
2022-11-27T16:49:25.254Z,2.8
2022-11-27T16:54:25.353Z,2.8
2022-11-27T16:59:25.158Z,2.8
2022-11-27T17:04:25.532Z,2.8
2022-11-27T17:09:25.156Z,2.8
2022-11-27T17:14:25.188Z,2.9
2022-11-27T17:19:25.192Z,2.8
2022-11-27T17:24:25.156Z,2.8
2022-11-27T17:29:25.505Z,2.9
2022-11-27T17:34:25.218Z,2.9
2022-11-27T17:39:25.354Z,2.9
2022-11-27T17:44:25.135Z,2.9
2022-11-27T17:49:25.240Z,2.9
2022-11-27T17:54:25.174Z,2.9
2022-11-27T17:59:25.211Z,2.9
2022-11-27T18:04:25.394Z,2.9
2022-11-27T18:09:25.189Z,2.9
2022-11-27T18:14:25.296Z,2.9
2022-11-27T18:19:25.489Z,2.8
2022-11-27T18:24:25.527Z,2.9
2022-11-27T18:29:25.171Z,2.8
2022-11-27T18:34:25.174Z,2.8
2022-11-27T18:39:25.340Z,2.8
2022-11-27T18:44:25.165Z,2.8
2022-11-27T18:49:25.311Z,2.8
2022-11-27T18:54:25.305Z,2.8
2022-11-27T18:59:25.199Z,2.9
2022-11-27T19:04:25.166Z,2.9
2022-11-27T19:09:25.265Z,2.9
2022-11-27T19:14:25.430Z,2.9
2022-11-27T19:19:53.727Z,2.7
2022-11-27T19:24:25.324Z,2.8
2022-11-27T19:29:25.184Z,2.8
2022-11-27T19:34:25.153Z,2.8
2022-11-27T19:39:25.125Z,2.8
2022-11-27T19:44:25.212Z,2.8
2022-11-27T19:49:25.457Z,2.8
2022-11-27T19:54:25.185Z,2.7
2022-11-27T19:59:26.015Z,2.8
2022-11-27T20:04:25.226Z,2.8
2022-11-27T20:09:25.191Z,2.8
2022-11-27T20:14:25.263Z,2.8
2022-11-27T20:19:25.227Z,2.8
2022-11-27T20:24:25.404Z,2.8
2022-11-27T20:29:25.170Z,2.8
2022-11-27T20:34:25.392Z,2.7
2022-11-27T20:39:25.188Z,2.8
2022-11-27T20:44:25.264Z,2.7
2022-11-27T20:49:25.208Z,2.7
2022-11-27T20:54:25.205Z,2.6
2022-11-27T20:59:25.607Z,2.6
2022-11-27T21:04:25.208Z,2.6
2022-11-27T21:09:25.421Z,2.6
2022-11-27T21:14:25.278Z,2.6
2022-11-27T21:19:25.213Z,2.6
2022-11-27T21:24:25.216Z,2.6
2022-11-27T21:29:25.671Z,2.6
2022-11-27T21:34:25.341Z,2.6
2022-11-27T21:39:25.291Z,2.6
2022-11-27T21:44:25.636Z,2.5
2022-11-27T21:49:25.267Z,2.5
2022-11-27T21:54:25.239Z,2.4
2022-11-27T21:59:25.349Z,2.4
2022-11-27T22:04:25.386Z,2.3
2022-11-27T22:09:25.296Z,2.4
2022-11-27T22:14:25.561Z,2.4
2022-11-27T22:19:25.257Z,2.4
2022-11-27T22:24:25.166Z,2.4
2022-11-27T22:29:25.237Z,2.4
2022-11-27T22:34:25.382Z,2.3
2022-11-27T22:39:25.163Z,2.3
2022-11-27T22:44:25.361Z,2.3
2022-11-27T22:49:25.164Z,2.3
2022-11-27T22:54:25.224Z,2.3
2022-11-27T22:59:33.919Z,2.3
2022-11-27T23:04:25.440Z,2.3
2022-11-27T23:09:25.236Z,2.2
2022-11-27T23:14:25.513Z,2.3
2022-11-27T23:19:25.219Z,2.2
2022-11-27T23:24:25.262Z,2.1
2022-11-27T23:29:25.201Z,2.1
2022-11-27T23:34:25.396Z,2.1
2022-11-27T23:39:25.192Z,2.1
2022-11-27T23:44:25.488Z,2.1
2022-11-27T23:49:25.234Z,2.1
2022-11-27T23:54:25.194Z,2.1
2022-11-27T23:59:25.230Z,2.1
